Time;durP1;ratioP1;P1;durP2;ratioP2;P2;SDS_P1;SDS_P2;PMS_P1;PMS_P2;Temp;Humidity;BMP_temperature;BMP_pressure;BME280_temperature;BME280_humidity;BME280_pressure;Samples;Min_cycle;Max_cycle;Signal;HPM_P1;HPM_P2
2023/09/18 00:00:49;;;;;;;6.85;5.68;;;;;;;;;;4976239;28;20441;-83
2023/09/18 00:03:17;;;;;;;7.32;6.03;;;;;;;;;;4972125;28;20385;-82
2023/09/18 00:05:43;;;;;;;7.18;6.13;;;;;;;;;;4963787;28;20434;-83
2023/09/18 00:08:08;;;;;;;7.38;6.10;;;;;;;;;;4967531;28;20073;-81
2023/09/18 00:10:34;;;;;;;8.25;5.93;;;;;;;;;;4959655;28;20074;-82
2023/09/18 00:13:01;;;;;;;8.35;6.13;;;;;;;;;;4976837;28;20035;-82
2023/09/18 00:15:26;;;;;;;7.38;6.05;;;;;;;;;;4957701;28;20719;-82
2023/09/18 00:17:52;;;;;;;7.95;5.80;;;;;;;;;;4973527;28;20066;-82
2023/09/18 00:20:18;;;;;;;7.22;5.72;;;;;;;;;;4967941;28;20051;-82
2023/09/18 00:22:44;;;;;;;8.07;5.60;;;;;;;;;;4959898;28;20088;-82
2023/09/18 00:25:09;;;;;;;8.13;5.82;;;;;;;;;;4962401;28;20058;-82
2023/09/18 00:27:36;;;;;;;6.97;5.68;;;;;;;;;;4972651;28;20406;-82
2023/09/18 00:30:03;;;;;;;7.45;5.88;;;;;;;;;;4974773;28;20147;-82
2023/09/18 00:32:28;;;;;;;8.77;5.80;;;;;;;;;;4973570;28;20073;-83
2023/09/18 00:34:54;;;;;;;6.53;5.30;;;;;;;;;;4961070;28;20062;-82
2023/09/18 00:37:19;;;;;;;7.80;5.50;;;;;;;;;;4975600;28;20087;-82
2023/09/18 00:39:45;;;;;;;8.43;5.57;;;;;;;;;;4967564;28;20034;-82
2023/09/18 00:42:13;;;;;;;7.40;5.88;;;;;;;;;;4974790;28;20066;-82
2023/09/18 00:44:40;;;;;;;6.50;5.40;;;;;;;;;;4973419;28;20486;-82
2023/09/18 00:47:08;;;;;;;7.38;5.82;;;;;;;;;;4976545;28;20122;-82
2023/09/18 00:49:34;;;;;;;7.53;6.03;;;;;;;;;;4959839;28;20038;-82
2023/09/18 00:51:59;;;;;;;6.63;5.40;;;;;;;;;;4983121;28;20117;-82
2023/09/18 00:54:25;;;;;;;7.68;5.88;;;;;;;;;;4967553;28;20129;-82
2023/09/18 00:56:53;;;;;;;8.38;5.72;;;;;;;;;;4961336;28;20069;-82
2023/09/18 00:59:19;;;;;;;7.13;5.50;;;;;;;;;;4961723;28;20050;-82
2023/09/18 01:01:45;;;;;;;7.07;5.60;;;;;;;;;;4974220;28;20118;-82
2023/09/18 01:04:13;;;;;;;7.25;5.50;;;;;;;;;;4967082;28;20181;-83
2023/09/18 01:06:38;;;;;;;;;;;;;;;;;;4975820;28;20417;-82
2023/09/18 01:09:11;;;;;;;7.97;5.35;;;;;;;;;;4960024;28;20366;-82
2023/09/18 01:11:43;;;;;;;6.68;5.40;;;;;;;;;;4974280;28;20502;-82
2023/09/18 01:14:32;;;;;;;6.65;5.70;;;;;;;;;;4982269;28;20588;-84
2023/09/18 01:16:58;;;;;;;7.40;5.78;;;;;;;;;;4943973;28;20050;-83
2023/09/18 01:19:39;;;;;;;7.57;6.10;;;;;;;;;;4957173;28;20077;-82
2023/09/18 01:22:06;;;;;;;7.38;5.47;;;;;;;;;;4960678;28;20417;-83
2023/09/18 01:24:33;;;;;;;8.02;5.97;;;;;;;;;;4974478;28;20037;-81
2023/09/18 01:26:58;;;;;;;6.65;5.55;;;;;;;;;;4972011;28;20089;-81
2023/09/18 01:29:24;;;;;;;6.35;5.47;;;;;;;;;;4974935;28;20501;-81
2023/09/18 01:31:51;;;;;;;9.55;5.47;;;;;;;;;;4971025;28;20086;-82
2023/09/18 01:34:17;;;;;;;;;;;;;;;;;;4959356;28;20397;-82
2023/09/18 01:36:44;;;;;;;8.13;5.53;;;;;;;;;;4979005;28;19917;-82
2023/09/18 01:39:11;;;;;;;7.10;6.00;;;;;;;;;;4959780;28;20046;-82
2023/09/18 01:41:37;;;;;;;8.45;5.65;;;;;;;;;;4973504;28;20034;-81
2023/09/18 01:44:04;;;;;;;7.65;5.78;;;;;;;;;;4958615;28;20039;-81
2023/09/18 01:46:32;;;;;;;8.68;6.20;;;;;;;;;;4982333;28;20042;-82
2023/09/18 01:48:58;;;;;;;7.15;5.80;;;;;;;;;;4959746;28;20051;-82
2023/09/18 01:51:24;;;;;;;7.35;5.82;;;;;;;;;;4975304;28;20606;-82
2023/09/18 01:53:50;;;;;;;7.55;5.82;;;;;;;;;;4961886;28;20050;-82
2023/09/18 01:56:16;;;;;;;7.57;5.95;;;;;;;;;;4958601;28;20034;-81
2023/09/18 01:58:41;;;;;;;7.95;5.72;;;;;;;;;;4959841;28;20038;-81
2023/09/18 02:01:09;;;;;;;6.90;5.70;;;;;;;;;;4970405;28;20062;-81
2023/09/18 02:03:34;;;;;;;8.18;5.95;;;;;;;;;;4961936;28;20034;-84
2023/09/18 02:06:00;;;;;;;7.05;5.95;;;;;;;;;;4972365;28;20058;-82
2023/09/18 02:08:26;;;;;;;7.75;5.63;;;;;;;;;;4966572;28;20047;-81
2023/09/18 02:10:52;;;;;;;8.35;6.10;;;;;;;;;;4974738;28;20065;-82
2023/09/18 02:13:17;;;;;;;8.57;6.05;;;;;;;;;;4965877;28;20035;-81
2023/09/18 02:15:44;;;;;;;8.13;6.10;;;;;;;;;;4958453;28;20081;-81
2023/09/18 02:18:09;;;;;;;7.45;5.82;;;;;;;;;;4972502;28;20035;-81
2023/09/18 02:20:40;;;;;;;7.18;5.93;;;;;;;;;;4958348;28;20041;-82
2023/09/18 02:23:06;;;;;;;6.93;5.60;;;;;;;;;;4973847;28;20550;-82
2023/09/18 02:25:31;;;;;;;7.05;5.93;;;;;;;;;;4972968;28;20114;-82
2023/09/18 02:27:57;;;;;;;8.23;5.93;;;;;;;;;;4972688;28;20737;-81
2023/09/18 02:30:22;;;;;;;8.40;6.53;;;;;;;;;;4975090;28;20035;-81
2023/09/18 02:32:48;;;;;;;7.32;5.95;;;;;;;;;;4959249;28;20041;-81
2023/09/18 02:35:13;;;;;;;8.25;5.70;;;;;;;;;;4975764;28;20039;-80
2023/09/18 02:37:39;;;;;;;8.20;6.47;;;;;;;;;;4965842;28;20035;-81
2023/09/18 02:40:05;;;;;;;8.05;6.40;;;;;;;;;;4956091;28;20073;-81
2023/09/18 02:42:30;;;;;;;7.20;6.05;;;;;;;;;;4971955;28;20389;-81
2023/09/18 02:44:55;;;;;;;7.43;5.78;;;;;;;;;;4975883;28;20045;-81
2023/09/18 02:47:21;;;;;;;7.32;6.32;;;;;;;;;;4962287;28;20647;-81
2023/09/18 02:49:47;;;;;;;8.73;6.20;;;;;;;;;;4971566;28;20861;-81
2023/09/18 02:52:12;;;;;;;8.27;6.40;;;;;;;;;;4976101;28;20071;-82
2023/09/18 02:54:37;;;;;;;7.93;6.45;;;;;;;;;;4962574;28;20043;-81
2023/09/18 02:57:03;;;;;;;7.57;6.20;;;;;;;;;;4975727;28;20699;-82
2023/09/18 02:59:28;;;;;;;7.93;5.88;;;;;;;;;;4968986;28;20043;-82
2023/09/18 03:01:54;;;;;;;8.93;7.15;;;;;;;;;;4962169;28;20039;-81
2023/09/18 03:04:20;;;;;;;7.43;5.93;;;;;;;;;;4973987;28;20046;-82
2023/09/18 03:06:45;;;;;;;8.07;5.97;;;;;;;;;;4969235;28;20117;-81
2023/09/18 03:09:11;;;;;;;7.45;6.38;;;;;;;;;;4983044;28;20104;-81
2023/09/18 03:11:36;;;;;;;8.20;6.20;;;;;;;;;;4975707;28;20116;-81
2023/09/18 03:14:01;;;;;;;7.38;5.57;;;;;;;;;;4973356;28;20042;-81
2023/09/18 03:16:27;;;;;;;8.02;5.97;;;;;;;;;;4972756;28;20042;-80
2023/09/18 03:18:52;;;;;;;6.78;5.68;;;;;;;;;;4963538;28;20042;-82
2023/09/18 03:21:18;;;;;;;6.50;5.60;;;;;;;;;;4970627;28;20042;-83
2023/09/18 03:23:43;;;;;;;7.50;5.78;;;;;;;;;;4961361;28;20422;-82
2023/09/18 03:26:09;;;;;;;6.82;5.82;;;;;;;;;;4962559;28;20034;-83
2023/09/18 03:28:34;;;;;;;7.38;6.00;;;;;;;;;;4976779;28;20039;-82
2023/09/18 03:31:00;;;;;;;7.70;6.00;;;;;;;;;;4966426;28;20043;-83
2023/09/18 03:33:25;;;;;;;7.95;6.05;;;;;;;;;;4961945;28;20047;-83
2023/09/18 03:35:54;;;;;;;8.40;6.10;;;;;;;;;;4972976;28;20034;-82
2023/09/18 03:38:20;;;;;;;7.97;6.00;;;;;;;;;;4974595;28;20035;-82
2023/09/18 03:40:46;;;;;;;8.35;5.88;;;;;;;;;;4975130;28;20118;-82
2023/09/18 03:43:12;;;;;;;8.35;6.95;;;;;;;;;;4957789;28;20509;-82
2023/09/18 03:45:39;;;;;;;9.52;6.75;;;;;;;;;;4962424;28;20031;-82
2023/09/18 03:48:04;;;;;;;7.80;6.05;;;;;;;;;;4962755;28;20100;-82
2023/09/18 03:50:29;;;;;;;8.23;6.10;;;;;;;;;;4959789;28;20125;-82
2023/09/18 03:52:55;;;;;;;8.40;6.38;;;;;;;;;;4977792;28;20042;-83
2023/09/18 03:55:20;;;;;;;7.97;6.68;;;;;;;;;;4971580;28;20134;-83
2023/09/18 03:57:48;;;;;;;7.80;6.50;;;;;;;;;;4976980;28;20066;-87
2023/09/18 04:00:14;;;;;;;;;;;;;;;;;;4976260;28;20042;-84
2023/09/18 04:02:39;;;;;;;8.00;6.53;;;;;;;;;;4973470;28;20361;-85
2023/09/18 04:05:05;;;;;;;8.38;6.50;;;;;;;;;;4962597;28;20038;-84
2023/09/18 04:07:31;;;;;;;7.57;6.18;;;;;;;;;;4976173;28;20545;-84
2023/09/18 04:09:57;;;;;;;8.32;6.22;;;;;;;;;;4961388;28;20043;-83
2023/09/18 04:12:23;;;;;;;8.68;6.68;;;;;;;;;;4955381;28;20034;-84
2023/09/18 04:14:51;;;;;;;8.32;6.40;;;;;;;;;;4959160;28;20038;-84
2023/09/18 04:17:17;;;;;;;7.43;6.25;;;;;;;;;;4949713;28;20497;-84
2023/09/18 04:19:44;;;;;;;9.70;6.40;;;;;;;;;;4977882;28;20062;-85
2023/09/18 04:22:15;;;;;;;7.78;6.57;;;;;;;;;;4946384;28;20505;-84
2023/09/18 04:24:40;;;;;;;7.00;6.10;;;;;;;;;;4955124;28;20806;-84
2023/09/18 04:27:06;;;;;;;8.98;6.40;;;;;;;;;;4965389;28;20141;-84
2023/09/18 04:29:35;;;;;;;9.20;6.55;;;;;;;;;;4967518;28;20042;-84
2023/09/18 04:32:01;;;;;;;9.65;6.78;;;;;;;;;;4967195;28;20031;-85
2023/09/18 04:34:26;;;;;;;9.00;6.32;;;;;;;;;;4968471;28;20042;-85
2023/09/18 04:36:52;;;;;;;8.52;6.85;;;;;;;;;;4971112;28;20042;-84
2023/09/18 04:39:17;;;;;;;10.55;7.53;;;;;;;;;;4975688;28;20467;-84
2023/09/18 04:41:43;;;;;;;7.25;6.40;;;;;;;;;;4960212;28;20048;-84
2023/09/18 04:44:12;;;;;;;9.98;6.95;;;;;;;;;;4962716;28;20449;-84
2023/09/18 04:46:38;;;;;;;8.20;6.55;;;;;;;;;;4974117;28;20070;-84
2023/09/18 04:49:06;;;;;;;9.95;7.38;;;;;;;;;;4952726;28;20121;-84
2023/09/18 04:51:33;;;;;;;8.77;7.05;;;;;;;;;;4983601;28;20121;-84
2023/09/18 04:53:59;;;;;;;8.75;6.55;;;;;;;;;;4975500;28;20473;-83
2023/09/18 04:56:26;;;;;;;9.20;7.30;;;;;;;;;;4972415;28;20386;-84
2023/09/18 04:58:59;;;;;;;10.40;7.18;;;;;;;;;;4967113;28;20054;-78
2023/09/18 05:01:24;;;;;;;10.93;7.45;;;;;;;;;;4973733;28;20490;-77
2023/09/18 05:03:51;;;;;;;7.57;6.78;;;;;;;;;;4977102;28;20041;-78
2023/09/18 05:06:16;;;;;;;11.85;7.70;;;;;;;;;;4965691;28;20039;-78
2023/09/18 05:08:43;;;;;;;8.23;6.95;;;;;;;;;;4971068;28;20489;-78
2023/09/18 05:11:08;;;;;;;8.23;7.33;;;;;;;;;;4973720;28;20034;-78
2023/09/18 05:13:34;;;;;;;8.02;7.00;;;;;;;;;;4975612;28;20465;-78
2023/09/18 05:16:00;;;;;;;8.48;6.90;;;;;;;;;;4956200;28;20043;-78
2023/09/18 05:18:26;;;;;;;9.05;7.45;;;;;;;;;;4972053;28;20738;-78
2023/09/18 05:20:51;;;;;;;10.02;6.82;;;;;;;;;;4968937;28;20069;-78
2023/09/18 05:23:17;;;;;;;10.68;6.80;;;;;;;;;;4973469;28;20035;-78
2023/09/18 05:25:44;;;;;;;10.07;6.72;;;;;;;;;;4972634;28;20041;-78
2023/09/18 05:28:09;;;;;;;8.68;6.85;;;;;;;;;;4970889;28;20042;-78
2023/09/18 05:30:38;;;;;;;7.82;6.55;;;;;;;;;;4976552;28;20465;-78
2023/09/18 05:33:04;;;;;;;9.65;6.85;;;;;;;;;;4967660;28;20112;-78
2023/09/18 05:35:40;;;;;;;8.95;6.50;;;;;;;;;;4970008;28;20490;-78
2023/09/18 05:38:06;;;;;;;9.35;6.25;;;;;;;;;;4973439;28;20116;-78
2023/09/18 05:40:32;;;;;;;7.30;6.00;;;;;;;;;;4972504;28;20042;-75
2023/09/18 05:42:57;;;;;;;8.27;6.50;;;;;;;;;;4972431;28;20101;-77
2023/09/18 05:45:23;;;;;;;8.32;6.03;;;;;;;;;;4973282;28;20050;-76
2023/09/18 05:47:49;;;;;;;8.48;6.45;;;;;;;;;;4972188;28;21559;-76
2023/09/18 05:50:16;;;;;;;8.98;6.10;;;;;;;;;;4971423;28;20498;-76
2023/09/18 05:52:45;;;;;;;8.82;6.05;;;;;;;;;;4971029;28;20042;-77
2023/09/18 05:55:11;;;;;;;10.82;5.85;;;;;;;;;;4972151;28;20034;-77
2023/09/18 05:57:37;;;;;;;7.82;6.10;;;;;;;;;;4973809;28;20038;-77
2023/09/18 06:00:03;;;;;;;9.23;5.75;;;;;;;;;;4971158;28;20489;-78
2023/09/18 06:02:28;;;;;;;8.43;6.00;;;;;;;;;;4956620;28;20051;-77
2023/09/18 06:04:59;;;;;;;9.02;5.80;;;;;;;;;;4972454;28;20038;-77
2023/09/18 06:07:26;;;;;;;8.52;6.00;;;;;;;;;;4987840;28;20034;-77
2023/09/18 06:09:51;;;;;;;8.32;5.97;;;;;;;;;;4960376;28;20034;-77
2023/09/18 06:12:17;;;;;;;7.18;5.90;;;;;;;;;;4971782;28;20057;-76
2023/09/18 06:14:42;;;;;;;8.90;5.90;;;;;;;;;;4965578;28;20482;-77
2023/09/18 06:17:09;;;;;;;9.00;5.65;;;;;;;;;;4973616;28;20497;-77
2023/09/18 06:19:35;;;;;;;8.02;5.75;;;;;;;;;;4960333;28;20062;-77
2023/09/18 06:22:00;;;;;;;13.70;9.50;;;;;;;;;;4977893;28;20061;-77
2023/09/18 06:24:26;;;;;;;12.48;7.50;;;;;;;;;;4969637;28;20490;-77
2023/09/18 06:26:52;;;;;;;7.43;5.30;;;;;;;;;;4974649;28;20053;-77
2023/09/18 06:29:18;;;;;;;10.03;6.73;;;;;;;;;;4962336;28;20126;-77
2023/09/18 06:31:43;;;;;;;7.05;5.28;;;;;;;;;;4976362;28;20165;-77
2023/09/18 06:34:09;;;;;;;10.13;6.05;;;;;;;;;;4973645;28;20053;-78
2023/09/18 06:36:34;;;;;;;6.75;5.03;;;;;;;;;;4976816;28;20491;-77
2023/09/18 06:39:00;;;;;;;7.35;5.03;;;;;;;;;;4963695;28;20057;-77
2023/09/18 06:41:25;;;;;;;8.15;5.78;;;;;;;;;;4974440;28;20034;-77
2023/09/18 06:43:51;;;;;;;8.75;5.20;;;;;;;;;;4968317;28;20042;-77
2023/09/18 06:46:16;;;;;;;7.25;5.15;;;;;;;;;;4975811;28;20045;-77
2023/09/18 06:48:45;;;;;;;7.13;5.10;;;;;;;;;;4975776;28;20425;-78
2023/09/18 06:51:10;;;;;;;7.53;4.95;;;;;;;;;;4968022;28;20039;-77
2023/09/18 06:53:36;;;;;;;7.60;5.15;;;;;;;;;;4962956;28;20478;-78
2023/09/18 06:56:01;;;;;;;8.25;5.20;;;;;;;;;;4973957;28;20084;-77
2023/09/18 06:58:27;;;;;;;8.52;4.72;;;;;;;;;;4976115;28;20031;-78
2023/09/18 07:00:52;;;;;;;7.45;4.70;;;;;;;;;;4962064;28;20042;-77
2023/09/18 07:03:18;;;;;;;6.82;4.40;;;;;;;;;;4969962;28;20046;-77
2023/09/18 07:05:43;;;;;;;6.82;4.30;;;;;;;;;;4967433;28;20035;-78
2023/09/18 07:08:11;;;;;;;7.15;4.18;;;;;;;;;;4965110;28;20054;-78
2023/09/18 07:10:37;;;;;;;6.65;4.57;;;;;;;;;;4976947;28;20071;-77
2023/09/18 07:13:03;;;;;;;5.28;4.30;;;;;;;;;;4976722;28;20073;-77
2023/09/18 07:15:28;;;;;;;6.22;4.38;;;;;;;;;;4976747;28;20045;-77
2023/09/18 07:17:53;;;;;;;5.07;4.15;;;;;;;;;;4963455;28;21221;-77
2023/09/18 07:20:19;;;;;;;8.43;4.50;;;;;;;;;;4976266;28;20126;-78
2023/09/18 07:22:47;;;;;;;6.25;4.30;;;;;;;;;;4963415;28;20062;-77
2023/09/18 07:25:13;;;;;;;5.32;3.80;;;;;;;;;;4975494;28;20058;-77
2023/09/18 07:27:43;;;;;;;5.40;4.00;;;;;;;;;;4962469;28;20405;-78
2023/09/18 07:30:12;;;;;;;7.30;3.65;;;;;;;;;;4975678;28;20134;-77
2023/09/18 07:32:39;;;;;;;5.05;3.67;;;;;;;;;;4968837;28;20445;-77
2023/09/18 07:35:07;;;;;;;5.32;3.70;;;;;;;;;;4968363;28;20034;-78
2023/09/18 07:37:32;;;;;;;5.22;3.50;;;;;;;;;;4975258;28;20593;-78
2023/09/18 07:39:58;;;;;;;6.22;3.35;;;;;;;;;;4958158;28;20069;-78
2023/09/18 07:42:27;;;;;;;4.68;3.38;;;;;;;;;;4972690;28;20113;-78
2023/09/18 07:44:52;;;;;;;5.15;3.35;;;;;;;;;;4980442;28;20038;-78
2023/09/18 07:47:18;;;;;;;6.03;3.67;;;;;;;;;;4960744;28;20114;-78
2023/09/18 07:49:44;;;;;;;4.05;3.10;;;;;;;;;;4972535;28;20045;-76
2023/09/18 07:52:09;;;;;;;4.90;3.38;;;;;;;;;;4963154;28;20030;-77
2023/09/18 07:54:35;;;;;;;5.30;3.33;;;;;;;;;;4961857;28;20101;-77
2023/09/18 07:57:00;;;;;;;6.90;3.15;;;;;;;;;;4959678;28;20049;-77
2023/09/18 07:59:26;;;;;;;5.60;3.50;;;;;;;;;;4973983;28;20038;-77
2023/09/18 08:01:52;;;;;;;4.82;3.42;;;;;;;;;;4959078;28;20050;-77
2023/09/18 08:04:17;;;;;;;5.88;3.05;;;;;;;;;;4961707;28;20061;-77
2023/09/18 08:06:42;;;;;;;4.20;3.00;;;;;;;;;;4973519;28;20111;-77
2023/09/18 08:09:13;;;;;;;4.30;3.25;;;;;;;;;;4965463;28;20031;-77
2023/09/18 08:11:41;;;;;;;4.43;3.10;;;;;;;;;;4972933;28;20118;-77
2023/09/18 08:14:07;;;;;;;5.78;3.45;;;;;;;;;;4973231;28;20545;-77
2023/09/18 08:16:33;;;;;;;5.22;3.10;;;;;;;;;;4967841;28;20034;-77
2023/09/18 08:19:00;;;;;;;5.80;3.05;;;;;;;;;;4973686;28;20941;-77
2023/09/18 08:21:28;;;;;;;;;;;;;;;;;;4974154;28;20053;-78
2023/09/18 08:23:54;;;;;;;4.53;2.75;;;;;;;;;;4961754;28;19918;-77
2023/09/18 08:26:20;;;;;;;5.82;2.70;;;;;;;;;;4970024;28;20039;-78
2023/09/18 08:28:45;;;;;;;4.25;2.80;;;;;;;;;;4961140;28;20139;-77
2023/09/18 08:31:11;;;;;;;7.25;3.25;;;;;;;;;;4971704;28;20042;-78
2023/09/18 08:33:36;;;;;;;6.30;2.90;;;;;;;;;;4970290;28;20038;-77
2023/09/18 08:36:01;;;;;;;5.50;2.70;;;;;;;;;;4971924;28;20789;-77
2023/09/18 08:38:27;;;;;;;6.63;3.03;;;;;;;;;;4951519;28;20070;-78
2023/09/18 08:40:57;;;;;;;5.28;2.70;;;;;;;;;;4956562;28;20061;-77
2023/09/18 08:43:23;;;;;;;4.78;3.00;;;;;;;;;;4963977;28;20040;-77
2023/09/18 08:45:52;;;;;;;6.05;2.90;;;;;;;;;;4965333;28;20027;-77
2023/09/18 08:48:18;;;;;;;5.82;4.38;;;;;;;;;;4974319;28;20093;-77
2023/09/18 08:50:45;;;;;;;6.95;3.00;;;;;;;;;;4975552;28;20038;-78
2023/09/18 08:53:11;;;;;;;4.68;2.65;;;;;;;;;;4958488;28;20481;-77
2023/09/18 08:55:36;;;;;;;3.95;2.88;;;;;;;;;;4958499;28;20126;-77
2023/09/18 08:58:02;;;;;;;3.55;2.40;;;;;;;;;;4974233;28;20027;-77
2023/09/18 09:00:28;;;;;;;6.32;2.58;;;;;;;;;;4960841;28;20142;-77
2023/09/18 09:02:54;;;;;;;4.97;2.40;;;;;;;;;;4960826;28;20043;-77
2023/09/18 09:05:23;;;;;;;4.57;2.40;;;;;;;;;;4973574;28;20054;-77
2023/09/18 09:07:50;;;;;;;4.63;2.60;;;;;;;;;;4961238;28;20054;-77
2023/09/18 09:10:15;;;;;;;3.58;2.30;;;;;;;;;;4975705;28;20042;-77
2023/09/18 09:12:55;;;;;;;5.28;2.55;;;;;;;;;;4972283;28;20046;-77
2023/09/18 09:15:23;;;;;;;5.68;2.40;;;;;;;;;;4976948;28;20505;-77
2023/09/18 09:17:49;;;;;;;5.38;2.30;;;;;;;;;;4972029;28;20065;-77
2023/09/18 09:20:15;;;;;;;5.03;2.38;;;;;;;;;;4977620;28;20066;-78
2023/09/18 09:22:41;;;;;;;4.35;2.60;;;;;;;;;;4957847;28;20481;-78
2023/09/18 09:25:28;;;;;;;4.77;2.73;;;;;;;;;;4972528;28;20061;-78
2023/09/18 09:27:57;;;;;;;6.13;2.80;;;;;;;;;;4965380;28;20104;-78
2023/09/18 09:30:25;;;;;;;5.15;2.50;;;;;;;;;;4981985;28;20034;-78
2023/09/18 09:32:52;;;;;;;4.28;2.70;;;;;;;;;;4962220;28;20042;-78
2023/09/18 09:35:27;;;;;;;5.35;2.60;;;;;;;;;;4969281;28;20944;-78
2023/09/18 09:37:57;;;;;;;4.43;2.65;;;;;;;;;;4965253;28;20039;-77
2023/09/18 09:40:23;;;;;;;4.55;2.85;;;;;;;;;;4971997;28;20034;-78
2023/09/18 09:42:52;;;;;;;5.40;2.80;;;;;;;;;;4958798;28;20078;-77
2023/09/18 09:45:18;;;;;;;5.35;2.60;;;;;;;;;;4981683;28;20059;-77
2023/09/18 09:47:43;;;;;;;3.53;2.70;;;;;;;;;;4969740;28;20035;-78
2023/09/18 09:50:18;;;;;;;4.57;2.78;;;;;;;;;;4973913;28;20057;-77
2023/09/18 09:52:48;;;;;;;3.70;2.38;;;;;;;;;;4956876;28;20041;-77
2023/09/18 09:55:33;;;;;;;6.40;2.70;;;;;;;;;;4960556;28;20515;-77
2023/09/18 09:58:06;;;;;;;6.55;2.80;;;;;;;;;;4970694;28;20098;-77
2023/09/18 10:00:42;;;;;;;5.32;3.05;;;;;;;;;;4973337;28;20198;-77
2023/09/18 10:03:09;;;;;;;5.25;2.90;;;;;;;;;;4987900;28;20077;-77
2023/09/18 10:05:36;;;;;;;4.60;2.55;;;;;;;;;;4965022;28;20564;-77
2023/09/18 10:08:06;;;;;;;4.82;3.08;;;;;;;;;;4974256;28;20492;-77
2023/09/18 10:10:35;;;;;;;6.47;2.85;;;;;;;;;;4972807;28;20058;-77
2023/09/18 10:13:07;;;;;;;6.32;2.67;;;;;;;;;;4969636;28;20494;-77
2023/09/18 10:15:38;;;;;;;6.07;2.90;;;;;;;;;;4965232;28;20061;-77
2023/09/18 10:18:05;;;;;;;3.80;2.80;;;;;;;;;;4959359;28;20486;-78
2023/09/18 10:20:31;;;;;;;4.85;2.58;;;;;;;;;;4972093;28;20038;-77
2023/09/18 10:22:57;;;;;;;3.92;2.47;;;;;;;;;;4972529;28;20053;-76
2023/09/18 10:25:29;;;;;;;4.35;2.80;;;;;;;;;;4971220;28;20422;-77
2023/09/18 10:28:02;;;;;;;3.90;2.60;;;;;;;;;;4971337;28;20050;-77
2023/09/18 10:30:29;;;;;;;4.45;2.70;;;;;;;;;;4973023;28;20062;-77
2023/09/18 10:32:56;;;;;;;4.43;3.30;;;;;;;;;;4966633;28;20430;-77
2023/09/18 10:35:22;;;;;;;3.67;2.80;;;;;;;;;;4957722;28;20038;-77
2023/09/18 10:37:53;;;;;;;4.30;2.90;;;;;;;;;;4976685;28;20039;-78
2023/09/18 10:40:20;;;;;;;4.63;2.65;;;;;;;;;;4974086;28;20104;-77
2023/09/18 10:42:46;;;;;;;4.57;3.28;;;;;;;;;;4965408;28;20038;-77
2023/09/18 10:45:12;;;;;;;5.13;2.80;;;;;;;;;;4955485;28;20085;-78
2023/09/18 10:47:43;;;;;;;3.90;2.67;;;;;;;;;;4957105;28;20035;-77
2023/09/18 10:50:09;;;;;;;4.82;2.78;;;;;;;;;;4980357;28;20599;-77
2023/09/18 10:52:36;;;;;;;5.50;2.92;;;;;;;;;;4972576;28;20096;-77
2023/09/18 10:55:04;;;;;;;5.60;2.90;;;;;;;;;;4971051;28;20061;-77
2023/09/18 10:57:36;;;;;;;5.43;2.88;;;;;;;;;;4958926;28;20030;-77
2023/09/18 11:00:13;;;;;;;4.35;2.65;;;;;;;;;;4973163;28;20054;-77
2023/09/18 11:02:38;;;;;;;;;;;;;;;;;;4951792;28;20030;-77
2023/09/18 11:05:05;;;;;;;4.18;3.00;;;;;;;;;;4974275;28;19921;-77
2023/09/18 11:07:30;;;;;;;4.70;2.85;;;;;;;;;;4967945;28;20116;-77
2023/09/18 11:09:55;;;;;;;5.22;3.00;;;;;;;;;;4974010;28;20133;-77
2023/09/18 11:12:44;;;;;;;5.35;2.90;;;;;;;;;;4960564;28;20169;-78
2023/09/18 11:15:25;;;;;;;5.63;3.10;;;;;;;;;;4976580;28;20126;-77
2023/09/18 11:18:02;;;;;;;5.65;3.17;;;;;;;;;;4961098;28;20559;-77
2023/09/18 11:20:28;;;;;;;5.43;2.78;;;;;;;;;;4974288;28;20038;-77
2023/09/18 11:23:12;;;;;;;6.20;3.28;;;;;;;;;;4974419;28;20058;-77
2023/09/18 11:25:40;;;;;;;4.60;3.20;;;;;;;;;;4983648;28;20454;-76
2023/09/18 11:28:07;;;;;;;4.60;3.00;;;;;;;;;;4971397;28;20520;-76
2023/09/18 11:30:36;;;;;;;9.70;3.60;;;;;;;;;;4974406;28;20077;-76
2023/09/18 11:33:05;;;;;;;4.95;3.30;;;;;;;;;;4957166;28;20395;-76
2023/09/18 11:35:32;;;;;;;6.00;3.40;;;;;;;;;;4974069;28;20150;-77
2023/09/18 11:38:06;;;;;;;5.78;3.40;;;;;;;;;;4976977;28;20638;-77
2023/09/18 11:40:38;;;;;;;5.72;3.63;;;;;;;;;;4973297;28;20042;-76
2023/09/18 11:43:29;;;;;;;4.65;3.17;;;;;;;;;;4976324;28;20042;-76
2023/09/18 11:45:59;;;;;;;6.93;3.47;;;;;;;;;;4961971;28;20066;-77
2023/09/18 11:48:27;;;;;;;7.03;3.53;;;;;;;;;;4975513;28;20050;-78
2023/09/18 11:50:54;;;;;;;7.05;3.50;;;;;;;;;;4983425;28;20062;-77
2023/09/18 11:53:20;;;;;;;4.07;3.20;;;;;;;;;;4974862;28;20043;-77
2023/09/18 11:55:46;;;;;;;4.72;3.30;;;;;;;;;;4984275;28;20110;-77
2023/09/18 11:58:11;;;;;;;5.32;3.28;;;;;;;;;;4968809;28;20084;-77
2023/09/18 12:00:45;;;;;;;6.50;3.28;;;;;;;;;;4974309;28;20062;-77
2023/09/18 12:03:24;;;;;;;7.40;3.30;;;;;;;;;;4976352;28;20046;-76
2023/09/18 12:05:52;;;;;;;4.72;3.35;;;;;;;;;;4976406;28;20045;-78
2023/09/18 12:08:18;;;;;;;4.78;3.47;;;;;;;;;;4975375;28;20066;-77
2023/09/18 12:10:43;;;;;;;5.18;2.95;;;;;;;;;;4977503;28;20569;-78
2023/09/18 12:13:09;;;;;;;4.07;2.80;;;;;;;;;;4961998;28;20047;-78
2023/09/18 12:15:34;;;;;;;4.93;2.85;;;;;;;;;;4959366;28;20063;-77
2023/09/18 12:18:11;;;;;;;5.18;2.72;;;;;;;;;;4959211;28;20043;-78
2023/09/18 12:20:37;;;;;;;;;;;;;;;;;;4974727;28;20489;-78
2023/09/18 12:23:02;;;;;;;4.97;3.08;;;;;;;;;;4975322;28;19925;-77
2023/09/18 12:25:28;;;;;;;6.43;2.88;;;;;;;;;;4958897;28;20053;-78
2023/09/18 12:27:54;;;;;;;4.63;2.65;;;;;;;;;;4961633;28;20051;-77
2023/09/18 12:30:22;;;;;;;6.22;2.63;;;;;;;;;;4964052;28;20042;-78
2023/09/18 12:32:48;;;;;;;5.78;2.90;;;;;;;;;;4970535;28;20394;-78
2023/09/18 12:35:14;;;;;;;5.95;2.50;;;;;;;;;;4971409;28;20048;-78
2023/09/18 12:37:41;;;;;;;4.85;2.83;;;;;;;;;;4971584;28;20057;-78
2023/09/18 12:40:10;;;;;;;3.77;2.40;;;;;;;;;;4960116;28;20049;-78
2023/09/18 12:42:40;;;;;;;3.72;2.33;;;;;;;;;;4972050;28;20494;-77
2023/09/18 12:45:07;;;;;;;7.53;3.13;;;;;;;;;;4977281;28;20041;-78
2023/09/18 12:47:33;;;;;;;6.60;2.70;;;;;;;;;;4970425;28;20038;-76
2023/09/18 12:50:03;;;;;;;6.50;2.70;;;;;;;;;;4961507;28;20042;-76
2023/09/18 12:52:29;;;;;;;5.43;2.78;;;;;;;;;;4975070;28;20038;-77
2023/09/18 12:54:56;;;;;;;4.47;2.65;;;;;;;;;;4964245;28;20049;-77
2023/09/18 12:57:21;;;;;;;6.57;2.95;;;;;;;;;;4974276;28;20034;-77
2023/09/18 12:59:50;;;;;;;5.60;2.70;;;;;;;;;;4973382;28;20409;-77
2023/09/18 13:02:17;;;;;;;6.35;2.88;;;;;;;;;;4965897;28;20038;-77
2023/09/18 13:04:51;;;;;;;5.43;3.00;;;;;;;;;;4958795;28;20514;-77
2023/09/18 13:07:17;;;;;;;5.40;3.05;;;;;;;;;;4969918;28;20127;-77
2023/09/18 13:09:43;;;;;;;6.68;3.03;;;;;;;;;;4973414;28;20090;-77
2023/09/18 13:12:09;;;;;;;5.15;2.75;;;;;;;;;;4965556;28;20072;-76
2023/09/18 13:15:03;;;;;;;5.90;2.97;;;;;;;;;;4973314;28;20038;-77
2023/09/18 13:17:36;;;;;;;5.28;3.13;;;;;;;;;;4972971;28;20505;-77
2023/09/18 13:20:09;;;;;;;6.28;2.80;;;;;;;;;;4983741;28;20049;-77
2023/09/18 13:22:35;;;;;;;6.28;3.10;;;;;;;;;;4972960;28;20035;-77
2023/09/18 13:25:00;;;;;;;6.22;2.58;;;;;;;;;;4977340;28;20043;-79
2023/09/18 13:27:26;;;;;;;5.28;2.97;;;;;;;;;;4953719;28;20421;-78
2023/09/18 13:29:53;;;;;;;5.18;2.72;;;;;;;;;;4967600;28;20070;-78
2023/09/18 13:32:18;;;;;;;7.30;3.15;;;;;;;;;;4971258;28;20037;-77
2023/09/18 13:34:45;;;;;;;4.47;3.00;;;;;;;;;;4973593;28;20038;-78
2023/09/18 13:37:10;;;;;;;5.97;2.97;;;;;;;;;;4972034;28;20050;-77
2023/09/18 13:39:36;;;;;;;7.35;3.50;;;;;;;;;;4964887;28;20046;-77
2023/09/18 13:42:04;;;;;;;6.47;3.60;;;;;;;;;;4958116;28;20563;-77
2023/09/18 13:44:30;;;;;;;6.50;3.90;;;;;;;;;;4971407;28;20490;-77
2023/09/18 13:46:56;;;;;;;6.00;4.28;;;;;;;;;;4958569;28;20505;-77
2023/09/18 13:49:22;;;;;;;7.30;3.40;;;;;;;;;;4959289;28;20039;-77
2023/09/18 13:51:50;;;;;;;6.75;3.65;;;;;;;;;;4959994;28;20034;-77
2023/09/18 13:54:16;;;;;;;9.80;3.75;;;;;;;;;;4958751;28;20462;-78
2023/09/18 13:56:42;;;;;;;7.30;3.10;;;;;;;;;;4972578;28;20517;-79
2023/09/18 13:59:09;;;;;;;10.35;3.20;;;;;;;;;;4974254;28;20042;-78
2023/09/18 14:01:36;;;;;;;8.00;3.10;;;;;;;;;;4974020;28;20109;-78
2023/09/18 14:04:01;;;;;;;6.35;2.90;;;;;;;;;;4972361;28;20409;-78
2023/09/18 14:06:27;;;;;;;4.93;3.10;;;;;;;;;;4972467;28;20034;-79
2023/09/18 14:08:52;;;;;;;6.57;3.13;;;;;;;;;;4961146;28;20105;-79
2023/09/18 14:11:21;;;;;;;7.03;3.20;;;;;;;;;;4959489;28;20038;-79
2023/09/18 14:13:47;;;;;;;6.00;3.08;;;;;;;;;;4960753;28;20141;-79
2023/09/18 14:16:15;;;;;;;6.18;2.40;;;;;;;;;;4972511;28;20035;-79
2023/09/18 14:18:40;;;;;;;5.30;2.80;;;;;;;;;;4965269;28;20250;-78
2023/09/18 14:21:06;;;;;;;7.97;3.03;;;;;;;;;;4970739;28;20042;-78
2023/09/18 14:23:33;;;;;;;6.65;2.80;;;;;;;;;;4957417;28;20038;-79
2023/09/18 14:26:00;;;;;;;5.15;2.60;;;;;;;;;;4961308;28;20074;-79
2023/09/18 14:28:33;;;;;;;5.40;2.67;;;;;;;;;;4966342;28;20050;-79
2023/09/18 14:31:01;;;;;;;5.90;2.20;;;;;;;;;;4953887;28;20510;-78
2023/09/18 14:33:29;;;;;;;4.85;2.50;;;;;;;;;;4966022;28;20058;-79
2023/09/18 14:35:55;;;;;;;4.28;2.22;;;;;;;;;;4957149;28;20031;-79
2023/09/18 14:38:20;;;;;;;5.13;2.30;;;;;;;;;;4960178;28;20393;-79
2023/09/18 14:40:47;;;;;;;5.13;2.00;;;;;;;;;;4975705;28;20117;-79
2023/09/18 14:43:12;;;;;;;6.05;2.22;;;;;;;;;;4968837;28;20030;-76